Antioch, Ohio
Current Conditions -  °F | °C
As of 6:39 AM on Friday 24 Oct 2014 (Local Time) from KPKB Reporting Station
Moderate Fog Moderate Fog  
Wind Chill: 36°   Ceiling: 200
Heat Index: 36°   Visibility: 0.25mi
Dew Point: 35°   Wind: 0mph
Humidity: 97%   Direction: NA
Pressure: 30.16"   Gusts: NA
Location:  39.7388°N, 81.0973°W
Report Text: KPKB 241039Z AUTO 00000KT 1/4SM FG VV002 02/02 A3016 RMK AO2 T00220017 RVRNO
Loading
Personal Weather Stations






























Interactive Weather Map New forecast layout! Learn more

10-Day Weather Forecast

Advertisements
Track Severe Weather on mobile